createdAt,value
2022-09-13T00:04:53.135Z,4.50
2022-09-13T00:09:55.446Z,5.43
2022-09-13T00:14:57.715Z,4.17
2022-09-13T00:20:00.076Z,4.33
2022-09-13T00:25:06.273Z,4.20
2022-09-13T00:30:09.052Z,4.17
2022-09-13T00:35:11.512Z,4.20
2022-09-13T00:40:13.789Z,4.00
2022-09-13T00:45:18.146Z,4.10
2022-09-13T00:50:26.187Z,4.20
2022-09-13T00:55:52.265Z,4.63
2022-09-13T01:00:56.727Z,4.70
2022-09-13T01:06:04.100Z,4.20
2022-09-13T01:11:07.645Z,4.73
2022-09-13T01:16:09.865Z,5.43
2022-09-13T01:21:32.209Z,4.80
2022-09-13T01:26:58.517Z,4.80
2022-09-13T01:32:15.482Z,4.37
2022-09-13T01:38:10.794Z,3.90
2022-09-13T01:43:19.956Z,5.10
2022-09-13T01:48:30.556Z,6.70
2022-09-13T01:53:51.195Z,4.67
2022-09-13T01:58:58.309Z,5.30
2022-09-13T02:04:05.553Z,4.87
2022-09-13T02:09:16.659Z,5.77
2022-09-13T02:14:25.975Z,4.77
2022-09-13T02:19:34.011Z,4.97
2022-09-13T02:24:58.101Z,4.30
2022-09-13T02:30:08.724Z,5.03
2022-09-13T02:35:19.115Z,4.77
2022-09-13T02:40:26.857Z,4.60
2022-09-13T02:45:34.601Z,4.90
2022-09-13T02:51:18.203Z,4.07
2022-09-13T02:56:34.656Z,4.80
2022-09-13T03:01:38.015Z,4.00
2022-09-13T03:06:41.042Z,4.80
2022-09-13T03:11:58.673Z,5.07
2022-09-13T03:17:09.844Z,5.13
2022-09-13T03:22:38.087Z,5.30
2022-09-13T03:28:06.246Z,5.43
2022-09-13T03:33:17.369Z,5.43
2022-09-13T03:38:25.672Z,5.40
2022-09-13T03:43:40.876Z,4.60
2022-09-13T03:48:45.701Z,5.00
2022-09-13T03:53:52.320Z,4.83
2022-09-13T03:58:54.590Z,5.20
2022-09-13T04:03:57.259Z,4.87
2022-09-13T04:08:59.983Z,5.40
2022-09-13T04:14:03.724Z,5.27
2022-09-13T04:19:06.022Z,5.10
2022-09-13T04:24:08.291Z,5.50
2022-09-13T04:29:11.725Z,4.77
2022-09-13T04:34:14.303Z,5.40
2022-09-13T04:39:17.648Z,5.50
2022-09-13T04:44:20.926Z,5.20
2022-09-13T04:49:23.272Z,5.47
2022-09-13T04:54:27.642Z,5.57
2022-09-13T04:59:29.823Z,5.13
2022-09-13T05:04:32.152Z,5.83
2022-09-13T05:09:34.432Z,6.07
2022-09-13T05:14:36.645Z,5.30
2022-09-13T05:19:38.993Z,6.50
2022-09-13T05:24:41.235Z,6.63
2022-09-13T05:29:44.018Z,6.83
2022-09-13T05:34:46.240Z,5.70
2022-09-13T05:40:10.166Z,6.13
2022-09-13T05:45:16.184Z,6.23
2022-09-13T05:50:44.806Z,6.37
2022-09-13T05:55:40.812Z,7.10
2022-09-13T06:00:43.236Z,5.93
2022-09-13T06:05:45.423Z,6.30
2022-09-13T06:10:55.633Z,6.67
2022-09-13T06:15:58.952Z,5.80
2022-09-13T06:21:06.496Z,5.70
2022-09-13T06:26:10.955Z,6.53
2022-09-13T06:31:14.696Z,5.90
2022-09-13T06:36:19.055Z,7.33
2022-09-13T06:41:23.543Z,6.03
2022-09-13T06:46:27.690Z,5.80
2022-09-13T06:51:34.653Z,5.93
2022-09-13T06:56:38.985Z,6.10
2022-09-13T07:01:43.834Z,5.80
2022-09-13T07:06:48.064Z,5.63
2022-09-13T07:11:52.402Z,5.37
2022-09-13T07:16:55.126Z,5.70
2022-09-13T07:21:58.007Z,5.43
2022-09-13T07:27:00.307Z,4.87
2022-09-13T07:32:02.683Z,4.53
2022-09-13T07:37:05.213Z,4.53
2022-09-13T07:42:07.446Z,6.73
2022-09-13T07:47:09.741Z,4.87
2022-09-13T07:52:11.948Z,5.10
2022-09-13T07:57:14.160Z,5.07
2022-09-13T08:02:18.248Z,6.37
2022-09-13T08:07:20.731Z,4.70
2022-09-13T08:12:23.005Z,5.10
2022-09-13T08:17:25.218Z,4.57
2022-09-13T08:22:27.388Z,3.90
2022-09-13T08:27:29.632Z,2.60
2022-09-13T08:32:32.369Z,2.10
2022-09-13T08:37:34.702Z,2.30
2022-09-13T08:42:52.231Z,2.70
2022-09-13T08:48:04.764Z,1.90
2022-09-13T08:53:30.011Z,1.73
2022-09-13T08:58:55.103Z,1.63
2022-09-13T09:04:13.167Z,1.57
2022-09-13T09:09:17.865Z,1.90
2022-09-13T09:14:39.432Z,1.97
2022-09-13T09:19:44.677Z,2.20
2022-09-13T09:24:51.075Z,2.37
2022-09-13T09:29:55.378Z,2.40
2022-09-13T09:35:06.503Z,3.10
2022-09-13T09:40:12.859Z,3.00
2022-09-13T09:45:18.198Z,2.47
2022-09-13T09:50:25.051Z,2.30
2022-09-13T09:55:30.102Z,2.50
2022-09-13T10:00:35.656Z,2.17
2022-09-13T10:05:38.017Z,2.70
2022-09-13T10:10:43.563Z,2.10
2022-09-13T10:16:06.340Z,3.40
2022-09-13T10:21:29.445Z,2.27
2022-09-13T10:26:33.598Z,2.53
2022-09-13T10:31:40.924Z,2.07
2022-09-13T10:37:35.663Z,2.60
2022-09-13T10:42:37.897Z,2.40
2022-09-13T10:47:46.512Z,2.00
2022-09-13T10:52:58.997Z,2.28
2022-09-13T10:58:07.835Z,2.03
2022-09-13T11:03:31.015Z,2.05
2022-09-13T11:09:07.388Z,2.20
2022-09-13T11:14:20.643Z,1.80
2022-09-13T11:19:41.895Z,1.63
2022-09-13T11:24:54.226Z,2.27
2022-09-13T11:30:18.941Z,2.40
2022-09-13T11:35:34.953Z,2.73
2022-09-13T11:41:06.004Z,2.00
2022-09-13T11:46:36.191Z,2.73
2022-09-13T11:52:03.020Z,2.60
2022-09-13T11:57:10.743Z,2.30
2022-09-13T12:02:26.168Z,2.10
2022-09-13T12:07:34.785Z,2.00
2022-09-13T12:12:37.946Z,1.92
2022-09-13T12:17:44.308Z,1.90
2022-09-13T12:22:47.993Z,2.10
2022-09-13T12:28:23.230Z,2.20
2022-09-13T12:33:26.153Z,2.07
2022-09-13T12:38:47.217Z,1.93
2022-09-13T12:44:10.758Z,2.50
2022-09-13T12:49:33.327Z,2.00
2022-09-13T12:55:29.379Z,2.00
2022-09-13T13:00:41.349Z,2.30
2022-09-13T13:05:46.992Z,1.90
2022-09-13T13:11:15.661Z,1.83
2022-09-13T13:16:48.663Z,2.13
2022-09-13T13:21:50.946Z,1.50
2022-09-13T13:26:58.163Z,1.93
2022-09-13T13:32:02.025Z,1.53
2022-09-13T13:37:29.427Z,1.70
2022-09-13T13:42:33.385Z,1.37
2022-09-13T13:47:35.860Z,1.53
2022-09-13T13:53:04.005Z,2.97
2022-09-13T13:58:23.532Z,2.13
2022-09-13T14:08:51.804Z,1.50
2022-09-13T14:14:00.874Z,1.70
2022-09-13T14:19:10.236Z,1.40
2022-09-13T14:24:22.991Z,2.00
2022-09-13T14:29:27.276Z,1.80
2022-09-13T14:34:38.901Z,1.77
2022-09-13T14:39:57.624Z,1.80
2022-09-13T14:45:01.279Z,1.83
2022-09-13T14:50:08.660Z,1.67
2022-09-13T14:55:15.899Z,2.10
2022-09-13T15:00:20.685Z,3.40
2022-09-13T15:05:28.279Z,2.07
2022-09-13T15:10:44.125Z,2.00
2022-09-13T15:15:46.674Z,2.90
2022-09-13T15:20:58.413Z,2.50
2022-09-13T15:26:08.267Z,1.87
2022-09-13T15:31:11.827Z,1.80
2022-09-13T15:36:19.935Z,2.13
2022-09-13T15:41:22.312Z,2.90
2022-09-13T15:46:24.867Z,2.20
2022-09-13T15:51:27.788Z,2.43
2022-09-13T15:56:35.868Z,2.77
2022-09-13T16:01:39.267Z,2.10
2022-09-13T16:06:41.812Z,1.80
2022-09-13T16:11:44.174Z,2.13
2022-09-13T16:16:47.129Z,2.00
2022-09-13T16:21:50.019Z,3.00
2022-09-13T16:26:52.344Z,2.37
2022-09-13T16:31:54.948Z,2.00
2022-09-13T16:36:57.352Z,2.30
2022-09-13T16:42:09.578Z,2.20
2022-09-13T16:47:14.968Z,2.37
2022-09-13T16:52:17.640Z,2.60
2022-09-13T16:57:20.488Z,2.17
2022-09-13T17:02:22.967Z,2.43
2022-09-13T17:07:25.496Z,2.13
2022-09-13T17:12:28.076Z,3.00
2022-09-13T17:17:36.339Z,2.20
2022-09-13T17:22:38.844Z,2.43
2022-09-13T17:27:41.195Z,2.33
2022-09-13T17:32:43.616Z,2.47
2022-09-13T17:37:47.400Z,5.13
2022-09-13T17:42:50.460Z,3.67
2022-09-13T17:47:53.871Z,2.63
2022-09-13T17:52:58.871Z,2.53
2022-09-13T17:58:01.215Z,2.63
2022-09-13T18:03:03.838Z,2.40
2022-09-13T18:13:37.276Z,2.70
2022-09-13T18:18:43.839Z,2.57
2022-09-13T18:23:48.199Z,2.70
2022-09-13T18:29:01.871Z,2.67
2022-09-13T18:34:07.093Z,2.57
2022-09-13T18:39:16.561Z,2.50
2022-09-13T18:44:21.035Z,2.70
2022-09-13T18:49:23.832Z,2.77
2022-09-13T18:54:26.208Z,2.90
2022-09-13T18:59:30.627Z,2.70
2022-09-13T19:04:35.153Z,3.50
2022-09-13T19:09:37.592Z,2.77
2022-09-13T19:14:39.910Z,2.90
2022-09-13T19:19:42.155Z,3.60
2022-09-13T19:24:44.449Z,2.77
2022-09-13T19:29:46.756Z,2.83
2022-09-13T19:34:49.126Z,3.00
2022-09-13T19:39:51.576Z,2.70
2022-09-13T19:44:53.942Z,3.00
2022-09-13T19:49:56.256Z,3.10
2022-09-13T19:55:00.092Z,2.97
2022-09-13T20:00:03.514Z,3.00
2022-09-13T20:05:10.210Z,3.10
2022-09-13T20:10:12.532Z,3.60
2022-09-13T20:15:14.879Z,3.03
2022-09-13T20:20:17.352Z,3.27
2022-09-13T20:25:19.664Z,3.10
2022-09-13T20:30:21.887Z,3.33
2022-09-13T20:35:27.285Z,3.37
2022-09-13T20:40:30.818Z,2.90
2022-09-13T20:45:33.279Z,3.20
2022-09-13T20:50:38.698Z,3.03
2022-09-13T20:55:42.374Z,2.80
2022-09-13T21:00:46.998Z,3.50
2022-09-13T21:05:49.255Z,3.30
2022-09-13T21:11:02.956Z,3.20
2022-09-13T21:16:11.537Z,2.83
2022-09-13T21:21:18.133Z,3.03
2022-09-13T21:26:23.121Z,2.93
2022-09-13T21:31:31.029Z,3.07
2022-09-13T21:36:37.632Z,3.17
2022-09-13T21:41:39.983Z,3.00
2022-09-13T21:46:42.337Z,2.93
2022-09-13T21:51:46.959Z,3.60
2022-09-13T21:56:53.792Z,3.30
2022-09-13T22:01:56.419Z,3.77
2022-09-13T22:06:58.728Z,3.30
2022-09-13T22:12:01.329Z,3.50
2022-09-13T22:17:03.660Z,3.40
2022-09-13T22:22:06.756Z,3.53
2022-09-13T22:27:09.869Z,3.43
2022-09-13T22:32:12.120Z,3.73
2022-09-13T22:37:14.661Z,3.60
2022-09-13T22:42:16.901Z,4.37
2022-09-13T22:47:19.728Z,3.33
2022-09-13T22:52:21.942Z,3.93
2022-09-13T22:57:24.197Z,4.17
2022-09-13T23:02:26.418Z,3.43
2022-09-13T23:07:28.641Z,4.33
2022-09-13T23:12:30.914Z,3.83
2022-09-13T23:17:33.148Z,3.43
2022-09-13T23:22:35.409Z,3.87
2022-09-13T23:27:37.625Z,3.50
2022-09-13T23:32:39.874Z,4.37
2022-09-13T23:37:42.128Z,4.10
2022-09-13T23:42:44.327Z,5.03
2022-09-13T23:47:46.571Z,4.43
2022-09-13T23:52:48.781Z,3.93
2022-09-13T23:57:50.972Z,3.50
